sensor_id;sensor_type;location;lat;lon;timestamp;temperature;humidity
52879;DHT22;38747;53.140;6.498;2022-07-04T00:00:01;12.70;99.90
52879;DHT22;38747;53.140;6.498;2022-07-04T00:02:26;12.70;99.90
52879;DHT22;38747;53.140;6.498;2022-07-04T00:04:52;12.70;99.90
52879;DHT22;38747;53.140;6.498;2022-07-04T00:07:17;12.70;99.90
52879;DHT22;38747;53.140;6.498;2022-07-04T00:09:43;12.60;99.90
52879;DHT22;38747;53.140;6.498;2022-07-04T00:12:08;12.70;99.90
52879;DHT22;38747;53.140;6.498;2022-07-04T00:14:34;12.60;99.90
52879;DHT22;38747;53.140;6.498;2022-07-04T00:16:59;12.60;99.90
52879;DHT22;38747;53.140;6.498;2022-07-04T00:19:25;12.60;99.90
52879;DHT22;38747;53.140;6.498;2022-07-04T00:21:50;12.60;99.90
52879;DHT22;38747;53.140;6.498;2022-07-04T00:24:16;12.60;99.90
52879;DHT22;38747;53.140;6.498;2022-07-04T00:26:41;12.50;99.90
52879;DHT22;38747;53.140;6.498;2022-07-04T00:29:07;12.50;99.90
52879;DHT22;38747;53.140;6.498;2022-07-04T00:31:32;12.50;99.90
52879;DHT22;38747;53.140;6.498;2022-07-04T00:33:59;12.50;99.90
52879;DHT22;38747;53.140;6.498;2022-07-04T00:36:24;12.50;99.90
52879;DHT22;38747;53.140;6.498;2022-07-04T00:38:50;12.50;99.90
52879;DHT22;38747;53.140;6.498;2022-07-04T00:41:15;12.40;99.90
52879;DHT22;38747;53.140;6.498;2022-07-04T00:43:41;12.40;99.90
52879;DHT22;38747;53.140;6.498;2022-07-04T00:46:06;12.50;99.90
52879;DHT22;38747;53.140;6.498;2022-07-04T00:48:32;12.40;99.90
52879;DHT22;38747;53.140;6.498;2022-07-04T00:50:58;12.40;99.90
52879;DHT22;38747;53.140;6.498;2022-07-04T00:53:23;12.40;99.90
52879;DHT22;38747;53.140;6.498;2022-07-04T00:55:52;12.40;99.90
52879;DHT22;38747;53.140;6.498;2022-07-04T00:58:22;12.40;99.90
52879;DHT22;38747;53.140;6.498;2022-07-04T01:00:48;12.40;99.90
52879;DHT22;38747;53.140;6.498;2022-07-04T01:03:14;12.40;99.90
52879;DHT22;38747;53.140;6.498;2022-07-04T01:05:39;12.40;99.90
52879;DHT22;38747;53.140;6.498;2022-07-04T01:08:05;12.40;99.90
52879;DHT22;38747;53.140;6.498;2022-07-04T01:10:31;12.40;99.90
52879;DHT22;38747;53.140;6.498;2022-07-04T01:12:56;12.40;99.90
52879;DHT22;38747;53.140;6.498;2022-07-04T01:15:22;12.40;99.90
52879;DHT22;38747;53.140;6.498;2022-07-04T01:17:48;12.40;99.90
52879;DHT22;38747;53.140;6.498;2022-07-04T01:20:13;12.40;99.90
52879;DHT22;38747;53.140;6.498;2022-07-04T01:22:39;12.30;99.90
52879;DHT22;38747;53.140;6.498;2022-07-04T01:25:05;12.30;99.90
52879;DHT22;38747;53.140;6.498;2022-07-04T01:27:30;12.30;99.90
52879;DHT22;38747;53.140;6.498;2022-07-04T01:29:56;12.30;99.90
52879;DHT22;38747;53.140;6.498;2022-07-04T01:32:21;12.30;99.90
52879;DHT22;38747;53.140;6.498;2022-07-04T01:34:47;12.20;99.90
52879;DHT22;38747;53.140;6.498;2022-07-04T01:37:13;12.20;99.90
52879;DHT22;38747;53.140;6.498;2022-07-04T01:39:38;12.20;99.90
52879;DHT22;38747;53.140;6.498;2022-07-04T01:42:04;12.20;99.90
52879;DHT22;38747;53.140;6.498;2022-07-04T01:44:29;12.20;99.90
52879;DHT22;38747;53.140;6.498;2022-07-04T01:46:55;12.20;99.90
52879;DHT22;38747;53.140;6.498;2022-07-04T01:49:20;12.20;99.90
52879;DHT22;38747;53.140;6.498;2022-07-04T01:51:46;12.10;99.90
52879;DHT22;38747;53.140;6.498;2022-07-04T01:54:12;12.10;99.90
52879;DHT22;38747;53.140;6.498;2022-07-04T01:56:39;12.10;99.90
52879;DHT22;38747;53.140;6.498;2022-07-04T01:59:04;12.10;99.90
52879;DHT22;38747;53.140;6.498;2022-07-04T02:01:30;12.10;99.90
52879;DHT22;38747;53.140;6.498;2022-07-04T02:03:56;12.10;99.90
52879;DHT22;38747;53.140;6.498;2022-07-04T02:06:21;12.10;99.90
52879;DHT22;38747;53.140;6.498;2022-07-04T02:08:47;12.10;99.90
52879;DHT22;38747;53.140;6.498;2022-07-04T02:11:31;12.10;99.90
52879;DHT22;38747;53.140;6.498;2022-07-04T02:14:17;12.10;99.90
52879;DHT22;38747;53.140;6.498;2022-07-04T02:16:42;12.10;99.90
52879;DHT22;38747;53.140;6.498;2022-07-04T02:19:08;12.10;99.90
52879;DHT22;38747;53.140;6.498;2022-07-04T02:21:33;12.10;99.90
52879;DHT22;38747;53.140;6.498;2022-07-04T02:23:59;12.00;99.90
52879;DHT22;38747;53.140;6.498;2022-07-04T02:26:24;12.00;99.90
52879;DHT22;38747;53.140;6.498;2022-07-04T02:28:51;12.00;99.90
52879;DHT22;38747;53.140;6.498;2022-07-04T02:31:16;12.00;99.90
52879;DHT22;38747;53.140;6.498;2022-07-04T02:33:42;12.00;99.90
52879;DHT22;38747;53.140;6.498;2022-07-04T02:36:07;12.00;99.90
52879;DHT22;38747;53.140;6.498;2022-07-04T02:38:32;12.00;99.90
52879;DHT22;38747;53.140;6.498;2022-07-04T02:40:58;12.00;99.90
52879;DHT22;38747;53.140;6.498;2022-07-04T02:43:23;12.00;99.90
52879;DHT22;38747;53.140;6.498;2022-07-04T02:45:49;12.00;99.90
52879;DHT22;38747;53.140;6.498;2022-07-04T02:48:14;11.90;99.90
52879;DHT22;38747;53.140;6.498;2022-07-04T02:50:40;11.90;99.90
52879;DHT22;38747;53.140;6.498;2022-07-04T02:53:05;12.00;99.90
52879;DHT22;38747;53.140;6.498;2022-07-04T02:55:31;12.00;99.90
52879;DHT22;38747;53.140;6.498;2022-07-04T02:57:57;12.00;99.90
52879;DHT22;38747;53.140;6.498;2022-07-04T03:00:22;12.00;99.90
52879;DHT22;38747;53.140;6.498;2022-07-04T03:02:48;11.90;99.90
52879;DHT22;38747;53.140;6.498;2022-07-04T03:05:13;12.00;99.90
52879;DHT22;38747;53.140;6.498;2022-07-04T03:07:39;12.00;99.90
52879;DHT22;38747;53.140;6.498;2022-07-04T03:10:04;12.00;99.90
52879;DHT22;38747;53.140;6.498;2022-07-04T03:12:30;12.00;99.90
52879;DHT22;38747;53.140;6.498;2022-07-04T03:14:55;12.00;99.90
52879;DHT22;38747;53.140;6.498;2022-07-04T03:17:21;11.90;99.90
52879;DHT22;38747;53.140;6.498;2022-07-04T03:19:46;12.00;99.90
52879;DHT22;38747;53.140;6.498;2022-07-04T03:22:12;12.00;99.90
52879;DHT22;38747;53.140;6.498;2022-07-04T03:24:37;12.00;99.90
52879;DHT22;38747;53.140;6.498;2022-07-04T03:27:03;12.00;99.90
52879;DHT22;38747;53.140;6.498;2022-07-04T03:29:28;12.00;99.90
52879;DHT22;38747;53.140;6.498;2022-07-04T03:31:54;12.00;99.90
52879;DHT22;38747;53.140;6.498;2022-07-04T03:34:19;12.00;99.90
52879;DHT22;38747;53.140;6.498;2022-07-04T03:36:45;12.00;99.90
52879;DHT22;38747;53.140;6.498;2022-07-04T03:39:10;12.00;99.90
52879;DHT22;38747;53.140;6.498;2022-07-04T03:41:36;12.00;99.90
52879;DHT22;38747;53.140;6.498;2022-07-04T03:44:02;12.00;99.90
52879;DHT22;38747;53.140;6.498;2022-07-04T03:46:27;12.00;99.90
52879;DHT22;38747;53.140;6.498;2022-07-04T03:48:53;12.00;99.90
52879;DHT22;38747;53.140;6.498;2022-07-04T03:51:19;12.00;99.90
52879;DHT22;38747;53.140;6.498;2022-07-04T03:53:44;12.00;99.90
52879;DHT22;38747;53.140;6.498;2022-07-04T03:56:10;12.10;99.90
52879;DHT22;38747;53.140;6.498;2022-07-04T03:58:35;12.00;99.90
52879;DHT22;38747;53.140;6.498;2022-07-04T04:01:01;12.00;99.90
52879;DHT22;38747;53.140;6.498;2022-07-04T04:03:27;12.10;99.90
52879;DHT22;38747;53.140;6.498;2022-07-04T04:06:11;12.00;99.90
52879;DHT22;38747;53.140;6.498;2022-07-04T04:08:37;12.10;99.90
52879;DHT22;38747;53.140;6.498;2022-07-04T04:11:02;12.40;99.90
52879;DHT22;38747;53.140;6.498;2022-07-04T04:13:28;13.00;99.90
52879;DHT22;38747;53.140;6.498;2022-07-04T04:15:53;13.10;99.90
52879;DHT22;38747;53.140;6.498;2022-07-04T04:18:19;13.00;99.90
52879;DHT22;38747;53.140;6.498;2022-07-04T04:20:44;13.00;99.90
52879;DHT22;38747;53.140;6.498;2022-07-04T04:23:10;13.10;99.90
52879;DHT22;38747;53.140;6.498;2022-07-04T04:25:35;13.10;99.90
52879;DHT22;38747;53.140;6.498;2022-07-04T04:28:01;13.00;99.90
52879;DHT22;38747;53.140;6.498;2022-07-04T04:30:26;13.10;99.90
52879;DHT22;38747;53.140;6.498;2022-07-04T04:32:52;13.40;99.90
52879;DHT22;38747;53.140;6.498;2022-07-04T04:35:17;13.70;99.90
52879;DHT22;38747;53.140;6.498;2022-07-04T04:37:44;14.00;99.90
52879;DHT22;38747;53.140;6.498;2022-07-04T04:40:10;14.00;99.90
52879;DHT22;38747;53.140;6.498;2022-07-04T04:42:36;13.90;99.90
52879;DHT22;38747;53.140;6.498;2022-07-04T04:45:03;13.90;99.90
52879;DHT22;38747;53.140;6.498;2022-07-04T04:47:29;14.00;99.90
52879;DHT22;38747;53.140;6.498;2022-07-04T04:49:54;14.00;99.90
52879;DHT22;38747;53.140;6.498;2022-07-04T04:52:20;13.80;99.90
52879;DHT22;38747;53.140;6.498;2022-07-04T04:54:45;13.70;99.90
52879;DHT22;38747;53.140;6.498;2022-07-04T04:57:11;13.80;99.90
52879;DHT22;38747;53.140;6.498;2022-07-04T04:59:36;13.80;99.90
52879;DHT22;38747;53.140;6.498;2022-07-04T05:02:02;14.00;99.90
52879;DHT22;38747;53.140;6.498;2022-07-04T05:04:28;14.00;99.90
52879;DHT22;38747;53.140;6.498;2022-07-04T05:06:53;13.90;99.90
52879;DHT22;38747;53.140;6.498;2022-07-04T05:09:19;13.80;99.90
52879;DHT22;38747;53.140;6.498;2022-07-04T05:11:45;13.80;99.90
52879;DHT22;38747;53.140;6.498;2022-07-04T05:14:11;13.70;99.90
52879;DHT22;38747;53.140;6.498;2022-07-04T05:16:36;13.70;99.90
52879;DHT22;38747;53.140;6.498;2022-07-04T05:19:01;13.70;99.90
52879;DHT22;38747;53.140;6.498;2022-07-04T05:21:27;13.80;99.90
52879;DHT22;38747;53.140;6.498;2022-07-04T05:23:54;13.90;99.90
52879;DHT22;38747;53.140;6.498;2022-07-04T05:26:19;14.00;99.90
52879;DHT22;38747;53.140;6.498;2022-07-04T05:28:45;14.10;99.90
52879;DHT22;38747;53.140;6.498;2022-07-04T05:31:10;14.20;99.90
52879;DHT22;38747;53.140;6.498;2022-07-04T05:33:36;14.10;99.90
52879;DHT22;38747;53.140;6.498;2022-07-04T05:36:01;14.20;99.90
52879;DHT22;38747;53.140;6.498;2022-07-04T05:38:27;14.20;99.90
52879;DHT22;38747;53.140;6.498;2022-07-04T05:40:52;14.20;99.90
52879;DHT22;38747;53.140;6.498;2022-07-04T05:43:18;14.20;99.90
52879;DHT22;38747;53.140;6.498;2022-07-04T05:45:43;14.20;99.90
52879;DHT22;38747;53.140;6.498;2022-07-04T05:48:09;14.30;99.90
52879;DHT22;38747;53.140;6.498;2022-07-04T05:50:34;14.40;99.90
52879;DHT22;38747;53.140;6.498;2022-07-04T05:53:00;14.40;99.90
52879;DHT22;38747;53.140;6.498;2022-07-04T05:55:26;14.50;99.90
52879;DHT22;38747;53.140;6.498;2022-07-04T05:57:51;14.60;99.90
52879;DHT22;38747;53.140;6.498;2022-07-04T06:00:18;14.60;99.90
52879;DHT22;38747;53.140;6.498;2022-07-04T06:02:44;14.70;99.90
52879;DHT22;38747;53.140;6.498;2022-07-04T06:05:09;14.80;99.90
52879;DHT22;38747;53.140;6.498;2022-07-04T06:07:35;14.90;99.90
52879;DHT22;38747;53.140;6.498;2022-07-04T06:10:00;14.90;99.90
52879;DHT22;38747;53.140;6.498;2022-07-04T06:12:26;15.00;99.90
52879;DHT22;38747;53.140;6.498;2022-07-04T06:14:51;15.10;99.90
52879;DHT22;38747;53.140;6.498;2022-07-04T06:17:17;15.20;99.90
52879;DHT22;38747;53.140;6.498;2022-07-04T06:19:42;15.20;99.90
52879;DHT22;38747;53.140;6.498;2022-07-04T06:22:08;15.20;99.90
52879;DHT22;38747;53.140;6.498;2022-07-04T06:24:33;15.30;99.90
52879;DHT22;38747;53.140;6.498;2022-07-04T06:26:59;15.40;99.90
52879;DHT22;38747;53.140;6.498;2022-07-04T06:29:24;15.40;99.90
52879;DHT22;38747;53.140;6.498;2022-07-04T06:31:50;15.50;99.90
52879;DHT22;38747;53.140;6.498;2022-07-04T06:34:15;15.60;99.90
52879;DHT22;38747;53.140;6.498;2022-07-04T06:36:59;15.60;99.90
52879;DHT22;38747;53.140;6.498;2022-07-04T06:39:25;15.70;99.90
52879;DHT22;38747;53.140;6.498;2022-07-04T06:41:51;15.70;99.90
52879;DHT22;38747;53.140;6.498;2022-07-04T06:44:16;15.80;99.90
52879;DHT22;38747;53.140;6.498;2022-07-04T06:46:41;15.80;99.90
52879;DHT22;38747;53.140;6.498;2022-07-04T06:49:09;15.90;99.90
52879;DHT22;38747;53.140;6.498;2022-07-04T06:51:35;15.90;99.90
52879;DHT22;38747;53.140;6.498;2022-07-04T06:54:01;16.00;99.90
52879;DHT22;38747;53.140;6.498;2022-07-04T06:56:26;16.10;99.90
52879;DHT22;38747;53.140;6.498;2022-07-04T06:58:52;16.20;99.90
52879;DHT22;38747;53.140;6.498;2022-07-04T07:01:17;16.20;99.90
52879;DHT22;38747;53.140;6.498;2022-07-04T07:03:43;16.30;99.90
52879;DHT22;38747;53.140;6.498;2022-07-04T07:06:08;16.40;99.90
52879;DHT22;38747;53.140;6.498;2022-07-04T07:08:34;16.50;99.90
52879;DHT22;38747;53.140;6.498;2022-07-04T07:10:59;16.60;99.90
52879;DHT22;38747;53.140;6.498;2022-07-04T07:13:42;16.60;99.90
52879;DHT22;38747;53.140;6.498;2022-07-04T07:16:08;16.80;99.90
52879;DHT22;38747;53.140;6.498;2022-07-04T07:18:34;17.00;99.90
52879;DHT22;38747;53.140;6.498;2022-07-04T07:20:59;17.20;99.90
52879;DHT22;38747;53.140;6.498;2022-07-04T07:23:25;17.40;99.90
52879;DHT22;38747;53.140;6.498;2022-07-04T07:25:50;17.50;99.90
52879;DHT22;38747;53.140;6.498;2022-07-04T07:28:16;17.70;99.90
52879;DHT22;38747;53.140;6.498;2022-07-04T07:30:41;17.60;99.90
52879;DHT22;38747;53.140;6.498;2022-07-04T07:33:07;17.60;99.90
52879;DHT22;38747;53.140;6.498;2022-07-04T07:35:33;17.70;99.90
52879;DHT22;38747;53.140;6.498;2022-07-04T07:37:58;17.70;99.90
52879;DHT22;38747;53.140;6.498;2022-07-04T07:40:23;17.80;99.90
52879;DHT22;38747;53.140;6.498;2022-07-04T07:42:49;17.90;99.90
52879;DHT22;38747;53.140;6.498;2022-07-04T07:45:15;18.00;99.90
52879;DHT22;38747;53.140;6.498;2022-07-04T07:47:40;18.20;99.90
52879;DHT22;38747;53.140;6.498;2022-07-04T07:50:06;18.30;99.90
52879;DHT22;38747;53.140;6.498;2022-07-04T07:52:32;18.30;99.90
52879;DHT22;38747;53.140;6.498;2022-07-04T07:54:57;18.30;99.90
52879;DHT22;38747;53.140;6.498;2022-07-04T07:57:23;18.30;99.90
52879;DHT22;38747;53.140;6.498;2022-07-04T07:59:48;18.20;99.90
52879;DHT22;38747;53.140;6.498;2022-07-04T08:02:14;18.00;99.90
52879;DHT22;38747;53.140;6.498;2022-07-04T08:04:39;17.90;99.90
52879;DHT22;38747;53.140;6.498;2022-07-04T08:07:10;17.80;99.90
52879;DHT22;38747;53.140;6.498;2022-07-04T08:09:35;17.70;99.90
52879;DHT22;38747;53.140;6.498;2022-07-04T08:12:02;17.50;99.90
52879;DHT22;38747;53.140;6.498;2022-07-04T08:14:28;17.40;99.90
52879;DHT22;38747;53.140;6.498;2022-07-04T08:16:54;17.40;99.90
52879;DHT22;38747;53.140;6.498;2022-07-04T08:19:20;17.40;99.90
52879;DHT22;38747;53.140;6.498;2022-07-04T08:21:45;17.40;99.90
52879;DHT22;38747;53.140;6.498;2022-07-04T08:24:14;17.40;99.90
52879;DHT22;38747;53.140;6.498;2022-07-04T08:26:40;17.30;99.90
52879;DHT22;38747;53.140;6.498;2022-07-04T08:29:05;17.30;99.90
52879;DHT22;38747;53.140;6.498;2022-07-04T08:31:31;17.20;99.90
52879;DHT22;38747;53.140;6.498;2022-07-04T08:33:56;17.20;99.90
52879;DHT22;38747;53.140;6.498;2022-07-04T08:36:22;17.30;99.90
52879;DHT22;38747;53.140;6.498;2022-07-04T08:38:47;17.20;99.90
52879;DHT22;38747;53.140;6.498;2022-07-04T08:41:14;17.20;99.90
52879;DHT22;38747;53.140;6.498;2022-07-04T08:43:40;17.20;99.90
52879;DHT22;38747;53.140;6.498;2022-07-04T08:46:06;17.20;99.90
52879;DHT22;38747;53.140;6.498;2022-07-04T08:48:32;17.10;99.90
52879;DHT22;38747;53.140;6.498;2022-07-04T08:53:37;17.20;99.90
52879;DHT22;38747;53.140;6.498;2022-07-04T08:56:03;17.30;99.90
52879;DHT22;38747;53.140;6.498;2022-07-04T08:58:47;17.40;99.90
52879;DHT22;38747;53.140;6.498;2022-07-04T09:01:13;17.70;99.90
52879;DHT22;38747;53.140;6.498;2022-07-04T09:03:42;18.00;99.90
52879;DHT22;38747;53.140;6.498;2022-07-04T09:06:08;18.10;99.90
52879;DHT22;38747;53.140;6.498;2022-07-04T09:08:34;18.20;99.90
52879;DHT22;38747;53.140;6.498;2022-07-04T09:11:00;18.40;99.90
52879;DHT22;38747;53.140;6.498;2022-07-04T09:13:26;18.60;99.90
52879;DHT22;38747;53.140;6.498;2022-07-04T09:15:52;18.70;99.90
52879;DHT22;38747;53.140;6.498;2022-07-04T09:20:46;18.80;99.90
52879;DHT22;38747;53.140;6.498;2022-07-04T09:23:19;18.80;99.90
52879;DHT22;38747;53.140;6.498;2022-07-04T09:25:46;18.90;99.90
52879;DHT22;38747;53.140;6.498;2022-07-04T09:28:11;18.90;99.90
52879;DHT22;38747;53.140;6.498;2022-07-04T09:30:46;19.00;99.90
52879;DHT22;38747;53.140;6.498;2022-07-04T09:33:11;19.40;99.90
52879;DHT22;38747;53.140;6.498;2022-07-04T09:35:37;19.50;99.90
52879;DHT22;38747;53.140;6.498;2022-07-04T09:38:03;19.70;99.90
52879;DHT22;38747;53.140;6.498;2022-07-04T09:40:33;19.70;99.90
52879;DHT22;38747;53.140;6.498;2022-07-04T09:43:20;19.70;99.90
52879;DHT22;38747;53.140;6.498;2022-07-04T09:48:20;19.60;99.90
52879;DHT22;38747;53.140;6.498;2022-07-04T09:50:46;19.60;99.90
52879;DHT22;38747;53.140;6.498;2022-07-04T09:53:11;19.50;99.90
52879;DHT22;38747;53.140;6.498;2022-07-04T09:55:37;19.50;99.90
52879;DHT22;38747;53.140;6.498;2022-07-04T09:58:04;19.60;99.90
52879;DHT22;38747;53.140;6.498;2022-07-04T10:00:31;19.90;99.90
52879;DHT22;38747;53.140;6.498;2022-07-04T10:02:57;20.20;99.90
52879;DHT22;38747;53.140;6.498;2022-07-04T10:05:40;20.60;99.90
52879;DHT22;38747;53.140;6.498;2022-07-04T10:08:06;20.90;99.90
52879;DHT22;38747;53.140;6.498;2022-07-04T10:13:03;21.10;99.90
52879;DHT22;38747;53.140;6.498;2022-07-04T10:15:29;21.30;99.90
52879;DHT22;38747;53.140;6.498;2022-07-04T10:17:55;21.50;99.90
52879;DHT22;38747;53.140;6.498;2022-07-04T10:20:20;21.70;99.90
52879;DHT22;38747;53.140;6.498;2022-07-04T10:22:46;21.70;99.90
52879;DHT22;38747;53.140;6.498;2022-07-04T10:25:11;21.80;99.90
52879;DHT22;38747;53.140;6.498;2022-07-04T10:27:37;21.90;99.90
52879;DHT22;38747;53.140;6.498;2022-07-04T10:30:05;21.90;99.90
52879;DHT22;38747;53.140;6.498;2022-07-04T10:32:31;22.00;99.90
52879;DHT22;38747;53.140;6.498;2022-07-04T10:34:57;22.10;99.90
52879;DHT22;38747;53.140;6.498;2022-07-04T10:37:23;22.10;99.90
52879;DHT22;38747;53.140;6.498;2022-07-04T10:39:48;22.10;99.90
52879;DHT22;38747;53.140;6.498;2022-07-04T10:42:23;22.00;99.90
52879;DHT22;38747;53.140;6.498;2022-07-04T10:44:49;21.90;99.90
52879;DHT22;38747;53.140;6.498;2022-07-04T10:47:22;22.10;99.90
52879;DHT22;38747;53.140;6.498;2022-07-04T10:49:49;22.20;99.90
52879;DHT22;38747;53.140;6.498;2022-07-04T10:52:15;22.30;99.90
52879;DHT22;38747;53.140;6.498;2022-07-04T10:54:42;22.40;99.90
52879;DHT22;38747;53.140;6.498;2022-07-04T10:57:21;22.50;99.90
52879;DHT22;38747;53.140;6.498;2022-07-04T11:02:22;22.90;99.90
52879;DHT22;38747;53.140;6.498;2022-07-04T11:15:16;22.60;99.90
52879;DHT22;38747;53.140;6.498;2022-07-04T11:17:42;22.60;99.90
52879;DHT22;38747;53.140;6.498;2022-07-04T11:20:09;22.80;99.90
52879;DHT22;38747;53.140;6.498;2022-07-04T11:22:36;23.00;99.90
52879;DHT22;38747;53.140;6.498;2022-07-04T11:25:01;23.10;99.90
52879;DHT22;38747;53.140;6.498;2022-07-04T11:27:27;23.00;99.90
52879;DHT22;38747;53.140;6.498;2022-07-04T11:29:53;23.10;99.90
52879;DHT22;38747;53.140;6.498;2022-07-04T11:32:19;23.30;99.90
52879;DHT22;38747;53.140;6.498;2022-07-04T11:34:45;23.30;99.90
52879;DHT22;38747;53.140;6.498;2022-07-04T11:37:11;23.30;99.90
52879;DHT22;38747;53.140;6.498;2022-07-04T11:39:37;23.20;99.90
52879;DHT22;38747;53.140;6.498;2022-07-04T11:42:03;23.30;99.90
52879;DHT22;38747;53.140;6.498;2022-07-04T11:44:47;23.40;99.90
52879;DHT22;38747;53.140;6.498;2022-07-04T11:47:32;23.50;99.90
52879;DHT22;38747;53.140;6.498;2022-07-04T11:49:58;23.60;99.90
52879;DHT22;38747;53.140;6.498;2022-07-04T11:52:28;23.60;99.90
52879;DHT22;38747;53.140;6.498;2022-07-04T11:54:53;23.60;99.90
52879;DHT22;38747;53.140;6.498;2022-07-04T11:57:20;23.70;99.90
52879;DHT22;38747;53.140;6.498;2022-07-04T12:00:06;23.40;99.90
52879;DHT22;38747;53.140;6.498;2022-07-04T12:02:33;23.30;99.90
52879;DHT22;38747;53.140;6.498;2022-07-04T12:04:59;23.00;99.90
52879;DHT22;38747;53.140;6.498;2022-07-04T12:07:26;22.80;99.90
52879;DHT22;38747;53.140;6.498;2022-07-04T12:09:52;22.70;99.90
52879;DHT22;38747;53.140;6.498;2022-07-04T12:12:18;22.80;99.90
52879;DHT22;38747;53.140;6.498;2022-07-04T12:17:35;23.20;99.90
52879;DHT22;38747;53.140;6.498;2022-07-04T12:20:10;23.40;99.90
52879;DHT22;38747;53.140;6.498;2022-07-04T12:22:37;23.50;99.90
52879;DHT22;38747;53.140;6.498;2022-07-04T12:25:04;23.70;99.90
52879;DHT22;38747;53.140;6.498;2022-07-04T12:27:31;23.70;99.90
52879;DHT22;38747;53.140;6.498;2022-07-04T12:29:57;23.70;99.90
52879;DHT22;38747;53.140;6.498;2022-07-04T12:32:23;23.50;99.90
52879;DHT22;38747;53.140;6.498;2022-07-04T12:34:48;23.40;99.90
52879;DHT22;38747;53.140;6.498;2022-07-04T12:37:15;23.50;99.90
52879;DHT22;38747;53.140;6.498;2022-07-04T12:39:42;23.40;99.90
52879;DHT22;38747;53.140;6.498;2022-07-04T12:44:37;23.50;99.90
52879;DHT22;38747;53.140;6.498;2022-07-04T12:47:03;23.30;99.90
52879;DHT22;38747;53.140;6.498;2022-07-04T12:49:29;23.10;99.90
52879;DHT22;38747;53.140;6.498;2022-07-04T12:52:05;23.10;99.90
52879;DHT22;38747;53.140;6.498;2022-07-04T12:54:31;23.20;99.90
52879;DHT22;38747;53.140;6.498;2022-07-04T12:57:07;23.10;99.90
52879;DHT22;38747;53.140;6.498;2022-07-04T12:59:33;23.10;99.90
52879;DHT22;38747;53.140;6.498;2022-07-04T13:01:59;23.20;99.90
52879;DHT22;38747;53.140;6.498;2022-07-04T13:04:24;23.40;99.90
52879;DHT22;38747;53.140;6.498;2022-07-04T13:06:50;23.50;99.90
52879;DHT22;38747;53.140;6.498;2022-07-04T13:09:15;23.50;99.90
52879;DHT22;38747;53.140;6.498;2022-07-04T13:11:41;23.60;99.90
52879;DHT22;38747;53.140;6.498;2022-07-04T13:14:25;23.90;99.90
52879;DHT22;38747;53.140;6.498;2022-07-04T13:16:51;24.00;99.90
52879;DHT22;38747;53.140;6.498;2022-07-04T13:19:16;24.00;99.90
52879;DHT22;38747;53.140;6.498;2022-07-04T13:21:43;24.00;99.90
52879;DHT22;38747;53.140;6.498;2022-07-04T13:24:08;23.80;99.90
52879;DHT22;38747;53.140;6.498;2022-07-04T13:26:34;23.80;99.90
52879;DHT22;38747;53.140;6.498;2022-07-04T13:28:59;23.60;99.90
52879;DHT22;38747;53.140;6.498;2022-07-04T13:31:27;23.40;99.90
52879;DHT22;38747;53.140;6.498;2022-07-04T13:33:55;23.20;99.90
52879;DHT22;38747;53.140;6.498;2022-07-04T13:36:21;23.00;99.90
52879;DHT22;38747;53.140;6.498;2022-07-04T13:38:47;23.00;99.90
52879;DHT22;38747;53.140;6.498;2022-07-04T13:41:12;23.00;99.90
52879;DHT22;38747;53.140;6.498;2022-07-04T13:43:38;22.80;99.90
52879;DHT22;38747;53.140;6.498;2022-07-04T13:46:03;22.60;99.90
52879;DHT22;38747;53.140;6.498;2022-07-04T13:48:29;22.60;99.90
52879;DHT22;38747;53.140;6.498;2022-07-04T13:50:54;22.80;99.90
52879;DHT22;38747;53.140;6.498;2022-07-04T13:53:20;23.00;99.90
52879;DHT22;38747;53.140;6.498;2022-07-04T13:55:46;23.00;99.90
52879;DHT22;38747;53.140;6.498;2022-07-04T13:58:11;23.10;99.90
52879;DHT22;38747;53.140;6.498;2022-07-04T14:00:38;23.00;99.90
52879;DHT22;38747;53.140;6.498;2022-07-04T14:03:06;23.00;99.90
52879;DHT22;38747;53.140;6.498;2022-07-04T14:05:31;23.10;99.90
52879;DHT22;38747;53.140;6.498;2022-07-04T14:07:57;23.40;99.90
52879;DHT22;38747;53.140;6.498;2022-07-04T14:10:23;23.40;99.90
52879;DHT22;38747;53.140;6.498;2022-07-04T14:12:49;23.30;99.90
52879;DHT22;38747;53.140;6.498;2022-07-04T14:15:14;23.10;99.90
52879;DHT22;38747;53.140;6.498;2022-07-04T14:17:40;22.80;99.90
52879;DHT22;38747;53.140;6.498;2022-07-04T14:20:06;23.00;99.90
52879;DHT22;38747;53.140;6.498;2022-07-04T14:22:39;23.10;99.90
52879;DHT22;38747;53.140;6.498;2022-07-04T14:25:05;23.20;99.90
52879;DHT22;38747;53.140;6.498;2022-07-04T14:27:31;23.20;99.90
52879;DHT22;38747;53.140;6.498;2022-07-04T14:29:56;23.20;99.90
52879;DHT22;38747;53.140;6.498;2022-07-04T14:32:22;23.20;99.90
52879;DHT22;38747;53.140;6.498;2022-07-04T14:34:47;23.20;99.90
52879;DHT22;38747;53.140;6.498;2022-07-04T14:37:13;23.10;99.90
52879;DHT22;38747;53.140;6.498;2022-07-04T14:39:39;22.80;99.90
52879;DHT22;38747;53.140;6.498;2022-07-04T14:42:04;22.90;99.90
52879;DHT22;38747;53.140;6.498;2022-07-04T14:44:30;22.90;99.90
52879;DHT22;38747;53.140;6.498;2022-07-04T14:46:55;22.80;99.90
52879;DHT22;38747;53.140;6.498;2022-07-04T14:49:21;22.70;99.90
52879;DHT22;38747;53.140;6.498;2022-07-04T14:51:46;22.60;99.90
52879;DHT22;38747;53.140;6.498;2022-07-04T14:54:12;22.50;99.90
52879;DHT22;38747;53.140;6.498;2022-07-04T14:56:38;22.40;99.90
52879;DHT22;38747;53.140;6.498;2022-07-04T14:59:04;22.30;99.90
52879;DHT22;38747;53.140;6.498;2022-07-04T15:01:29;22.30;99.90
52879;DHT22;38747;53.140;6.498;2022-07-04T15:03:55;22.20;99.90
52879;DHT22;38747;53.140;6.498;2022-07-04T15:06:21;22.30;99.90
52879;DHT22;38747;53.140;6.498;2022-07-04T15:08:46;22.30;99.90
52879;DHT22;38747;53.140;6.498;2022-07-04T15:11:12;22.10;99.90
52879;DHT22;38747;53.140;6.498;2022-07-04T15:13:37;22.00;99.90
52879;DHT22;38747;53.140;6.498;2022-07-04T15:16:03;22.00;99.90
52879;DHT22;38747;53.140;6.498;2022-07-04T15:18:29;21.90;99.90
52879;DHT22;38747;53.140;6.498;2022-07-04T15:20:54;21.90;99.90
52879;DHT22;38747;53.140;6.498;2022-07-04T15:23:38;21.80;99.90
52879;DHT22;38747;53.140;6.498;2022-07-04T15:26:22;21.80;99.90
52879;DHT22;38747;53.140;6.498;2022-07-04T15:28:48;21.80;99.90
52879;DHT22;38747;53.140;6.498;2022-07-04T15:31:13;21.70;99.90
52879;DHT22;38747;53.140;6.498;2022-07-04T15:33:39;21.60;99.90
52879;DHT22;38747;53.140;6.498;2022-07-04T15:36:04;21.50;99.90
52879;DHT22;38747;53.140;6.498;2022-07-04T15:38:30;21.40;99.90
52879;DHT22;38747;53.140;6.498;2022-07-04T15:40:56;21.30;99.90
52879;DHT22;38747;53.140;6.498;2022-07-04T15:43:21;21.20;99.90
52879;DHT22;38747;53.140;6.498;2022-07-04T15:45:47;21.20;99.90
52879;DHT22;38747;53.140;6.498;2022-07-04T15:48:12;21.20;99.90
52879;DHT22;38747;53.140;6.498;2022-07-04T15:50:38;21.10;99.90
52879;DHT22;38747;53.140;6.498;2022-07-04T15:53:03;21.10;99.90